Time;durP1;ratioP1;P1;durP2;ratioP2;P2;SDS_P1;SDS_P2;PMS_P1;PMS_P2;Temp;Humidity;BMP_temperature;BMP_pressure;BME280_temperature;BME280_humidity;BME280_pressure;Samples;Min_cycle;Max_cycle;Signal;HPM_P1;HPM_P2
2021/10/03 00:02:13;;;;;;;37.80;24.92;;;;;;;12.29;84.27;100973.75;1727074;81;25952;-79
2021/10/03 00:04:43;;;;;;;36.58;25.72;;;;;;;12.25;84.27;100979.99;1750124;80;25842;-79
2021/10/03 00:07:11;;;;;;;36.17;24.95;;;;;;;12.21;84.30;100981.93;1741509;80;25838;-79
2021/10/03 00:09:38;;;;;;;39.33;26.07;;;;;;;12.17;84.23;100974.73;1703213;82;25325;-79
2021/10/03 00:12:06;;;;;;;34.85;24.65;;;;;;;12.15;84.29;100985.34;1736169;80;28251;-80
2021/10/03 00:14:33;;;;;;;34.38;25.43;;;;;;;12.13;84.22;100985.53;1728128;82;25804;-80
2021/10/03 00:17:00;;;;;;;39.75;25.62;;;;;;;12.09;84.25;100983.41;1709803;82;25878;-79
2021/10/03 00:19:28;;;;;;;41.83;25.57;;;;;;;12.06;84.32;100985.95;1704105;82;26638;-79
2021/10/03 00:21:57;;;;;;;36.70;25.88;;;;;;;12.03;84.15;100977.45;1769725;80;25295;-79
2021/10/03 00:24:26;;;;;;;36.50;25.92;;;;;;;12.00;84.26;100979.15;1746218;80;27560;-79
2021/10/03 00:26:53;;;;;;;42.38;27.48;;;;;;;11.98;84.47;100983.88;1712859;81;26042;-80
2021/10/03 00:29:20;;;;;;;38.88;26.60;;;;;;;11.97;84.45;100981.72;1714594;82;25770;-80
2021/10/03 00:31:47;;;;;;;38.78;26.55;;;;;;;11.94;84.30;100980.73;1734025;80;26597;-79
2021/10/03 00:34:14;;;;;;;34.75;25.17;;;;;;;11.91;84.55;100982.98;1772801;79;25817;-79
2021/10/03 00:36:41;;;;;;;41.45;27.17;;;;;;;11.85;84.52;100988.56;1757526;80;27455;-79
2021/10/03 00:39:08;;;;;;;39.95;26.40;;;;;;;11.82;84.55;100989.45;1692475;82;25733;-79
2021/10/03 00:41:36;;;;;;;39.20;26.35;;;;;;;11.81;84.56;100993.14;1704161;82;25911;-79
2021/10/03 00:44:03;;;;;;;33.70;25.35;;;;;;;11.79;84.67;100985.78;1716170;81;26481;-79
2021/10/03 00:46:30;;;;;;;37.98;25.48;;;;;;;11.78;84.66;100993.52;1684289;81;25875;-79
2021/10/03 00:48:57;;;;;;;38.00;27.60;;;;;;;11.75;84.61;100988.02;1712872;82;27479;-79
2021/10/03 00:51:25;;;;;;;42.83;28.35;;;;;;;11.75;84.81;100980.46;1740090;81;25982;-78
2021/10/03 00:53:52;;;;;;;40.75;28.75;;;;;;;11.72;84.91;100980.31;1776472;80;26602;-79
2021/10/03 00:56:19;;;;;;;40.75;27.60;;;;;;;11.71;84.99;100978.67;1717827;82;26508;-79
2021/10/03 00:58:46;;;;;;;43.85;27.90;;;;;;;11.71;84.95;100979.17;1699991;81;25863;-79
2021/10/03 01:01:13;;;;;;;40.95;28.65;;;;;;;11.67;84.81;100979.22;1736777;81;27600;-79
2021/10/03 01:03:42;;;;;;;42.62;29.92;;;;;;;11.61;85.23;100977.55;1748756;81;25823;-80
2021/10/03 01:06:09;;;;;;;38.20;28.57;;;;;;;11.59;85.40;100976.91;1672844;81;26626;-79
2021/10/03 01:08:36;;;;;;;42.48;29.57;;;;;;;11.58;85.42;100977.94;1692401;81;26395;-79
2021/10/03 01:11:04;;;;;;;43.25;28.12;;;;;;;11.56;85.53;100970.58;1655925;84;25358;-79
2021/10/03 01:13:32;;;;;;;41.25;28.30;;;;;;;11.55;85.57;100968.91;1686214;81;27487;-79
2021/10/03 01:15:59;;;;;;;40.83;29.02;;;;;;;11.53;85.64;100968.26;1707803;81;25782;-79
2021/10/03 01:18:27;;;;;;;38.40;27.93;;;;;;;11.49;85.83;100972.83;1716957;81;25841;-79
2021/10/03 01:20:54;;;;;;;49.25;31.30;;;;;;;11.43;85.73;100967.70;1710487;82;26500;-80
2021/10/03 01:23:21;;;;;;;46.63;30.92;;;;;;;11.39;85.99;100958.36;1712888;81;25782;-79
2021/10/03 01:25:51;;;;;;;43.15;30.80;;;;;;;11.35;86.23;100962.92;1738878;81;28467;-79
2021/10/03 01:28:20;;;;;;;44.15;30.23;;;;;;;11.34;86.32;100962.59;1713248;81;26096;-79
2021/10/03 01:30:50;;;;;;;48.45;30.72;;;;;;;11.31;86.49;100962.44;1712149;81;26602;-79
2021/10/03 01:33:20;;;;;;;44.85;32.80;;;;;;;11.25;86.75;100956.47;1682640;81;26322;-79
2021/10/03 01:35:47;;;;;;;41.60;30.25;;;;;;;11.20;86.95;100956.20;1717656;81;26277;-79
2021/10/03 01:38:15;;;;;;;46.65;31.45;;;;;;;11.17;87.14;100952.53;1716603;81;27607;-79
2021/10/03 01:40:45;;;;;;;47.73;31.82;;;;;;;11.14;87.15;100951.54;1692453;81;26583;-79
2021/10/03 01:43:14;;;;;;;49.58;34.92;;;;;;;11.11;87.25;100953.27;1686725;81;26083;-79
2021/10/03 01:45:41;;;;;;;52.03;33.58;;;;;;;11.11;87.38;100952.42;1738119;81;26644;-79
2021/10/03 01:48:18;;;;;;;50.88;33.88;;;;;;;11.06;87.57;100942.23;1717166;81;25957;-79
2021/10/03 01:50:53;;;;;;;50.28;33.00;;;;;;;11.04;87.46;100943.42;1693490;81;27521;-79
2021/10/03 01:53:28;;;;;;;46.73;33.00;;;;;;;11.04;87.59;100944.77;1693152;81;25991;-79
2021/10/03 01:55:58;;;;;;;47.38;33.90;;;;;;;11.02;87.58;100951.66;1738264;81;26539;-79
2021/10/03 01:58:30;;;;;;;47.78;31.62;;;;;;;10.99;87.57;100939.14;1710064;81;26451;-79
2021/10/03 02:01:02;;;;;;;55.58;34.35;;;;;;;10.95;87.60;100944.54;1693924;81;25852;-79
2021/10/03 02:03:29;;;;;;;53.10;32.80;;;;;;;10.91;87.59;100941.36;1691991;81;27363;-79
2021/10/03 02:05:56;;;;;;;48.85;32.60;;;;;;;10.91;87.68;100937.34;1737852;81;25733;-79
2021/10/03 02:08:23;;;;;;;48.28;33.67;;;;;;;10.89;87.65;100939.38;1720477;81;25802;-79
2021/10/03 02:10:52;;;;;;;46.10;31.27;;;;;;;10.86;87.68;100941.91;1709641;80;25870;-79
2021/10/03 02:13:22;;;;;;;47.53;31.42;;;;;;;10.80;87.71;100945.30;1718399;81;25854;-79
2021/10/03 02:15:51;;;;;;;53.80;32.70;;;;;;;10.75;87.75;100943.70;1760077;80;27556;-79
2021/10/03 02:18:21;;;;;;;49.25;33.13;;;;;;;10.76;87.98;100951.20;1721344;80;25816;-79
2021/10/03 02:20:52;;;;;;;55.80;33.70;;;;;;;10.72;87.92;100945.87;1648029;80;25814;-79
2021/10/03 02:23:20;;;;;;;50.30;32.00;;;;;;;10.69;87.99;100951.61;1707932;80;25928;-79
2021/10/03 02:25:47;;;;;;;48.00;32.80;;;;;;;10.65;88.05;100946.25;1779138;79;26036;-78
2021/10/03 02:28:19;;;;;;;51.15;32.53;;;;;;;10.62;88.21;100942.11;1747847;80;27445;-79
2021/10/03 02:30:49;;;;;;;50.25;31.80;;;;;;;10.59;88.25;100939.78;1780353;79;26432;-79
2021/10/03 02:33:16;;;;;;;48.38;32.88;;;;;;;10.55;88.43;100939.81;1741053;80;25851;-79
2021/10/03 02:35:44;;;;;;;47.95;31.77;;;;;;;10.53;88.55;100931.63;1763903;80;25893;-79
2021/10/03 02:38:15;;;;;;;44.98;31.37;;;;;;;10.49;88.58;100937.85;1739119;80;25822;-79
2021/10/03 02:40:45;;;;;;;45.40;32.40;;;;;;;10.49;88.78;100933.83;1720554;81;27481;-79
2021/10/03 02:43:14;;;;;;;50.25;33.30;;;;;;;10.52;88.74;100935.33;1687045;80;25742;-79
2021/10/03 02:45:48;;;;;;;48.13;33.70;;;;;;;10.53;88.65;100935.64;1764030;80;25829;-79
2021/10/03 02:48:18;;;;;;;50.35;31.90;;;;;;;10.50;88.76;100941.38;1764970;79;26510;-79
2021/10/03 02:50:48;;;;;;;47.05;33.00;;;;;;;10.46;88.61;100939.53;1731143;79;25828;-79
2021/10/03 02:53:17;;;;;;;49.40;34.55;;;;;;;10.45;88.64;100938.37;1700567;80;28403;-79
2021/10/03 02:55:44;;;;;;;52.50;34.78;;;;;;;10.42;88.81;100933.36;1766856;80;26545;-79
2021/10/03 02:58:11;;;;;;;49.85;33.80;;;;;;;10.37;88.93;100939.25;1767475;79;25916;-79
2021/10/03 03:00:41;;;;;;;44.55;31.40;;;;;;;10.37;89.00;100933.09;1682889;81;25807;-79
2021/10/03 03:03:08;;;;;;;43.42;28.87;;;;;;;10.34;89.05;100930.25;1742985;81;25885;-79
2021/10/03 03:05:35;;;;;;;44.50;30.48;;;;;;;10.33;89.02;100935.80;1756509;80;27532;-79
2021/10/03 03:08:03;;;;;;;40.78;29.30;;;;;;;10.32;89.12;100932.27;1702033;82;25768;-79
2021/10/03 03:10:30;;;;;;;44.45;30.45;;;;;;;10.30;89.16;100930.28;1698578;81;25855;-79
2021/10/03 03:12:57;;;;;;;45.40;31.33;;;;;;;10.30;89.37;100932.95;1689931;81;26509;-78
2021/10/03 03:15:24;;;;;;;54.67;31.45;;;;;;;10.30;89.38;100942.33;1766331;79;25779;-79
2021/10/03 03:17:51;;;;;;;46.55;30.02;;;;;;;10.29;89.48;100945.16;1707608;80;27473;-79
2021/10/03 03:20:19;;;;;;;43.00;30.65;;;;;;;10.28;89.57;100940.83;1751814;80;25825;-79
2021/10/03 03:22:46;;;;;;;43.60;29.72;;;;;;;10.29;89.53;100944.66;1746380;80;25853;-79
2021/10/03 03:25:15;;;;;;;45.95;31.00;;;;;;;10.30;89.59;100945.50;1763368;80;25858;-79
2021/10/03 03:27:42;;;;;;;47.25;31.68;;;;;;;10.30;89.64;100945.01;1755715;79;25724;-79
2021/10/03 03:30:12;;;;;;;45.60;31.55;;;;;;;10.32;89.62;100938.13;1695289;80;27457;-78
2021/10/03 03:32:40;;;;;;;43.15;31.65;;;;;;;10.32;89.59;100939.47;1685540;80;26473;-79
2021/10/03 03:35:09;;;;;;;43.30;29.65;;;;;;;10.31;89.62;100941.83;1735260;80;25983;-79
2021/10/03 03:37:37;;;;;;;42.83;30.48;;;;;;;10.32;89.66;100952.85;1727232;80;25888;-79
2021/10/03 03:40:08;;;;;;;42.62;30.77;;;;;;;10.33;89.66;100943.83;1754913;80;26075;-79
2021/10/03 03:42:35;;;;;;;41.68;30.65;;;;;;;10.32;89.60;100945.66;1740364;80;26899;-79
2021/10/03 03:45:03;;;;;;;46.13;30.92;;;;;;;10.32;89.59;100938.97;1763723;80;25778;-78
2021/10/03 03:47:30;;;;;;;47.20;29.45;;;;;;;10.34;89.65;100942.30;1758350;80;26449;-79
2021/10/03 03:49:57;;;;;;;42.90;29.80;;;;;;;10.34;89.55;100936.10;1695768;80;26436;-79
2021/10/03 03:52:25;;;;;;;42.35;30.35;;;;;;;10.30;89.50;100933.45;1757940;80;25826;-79
2021/10/03 03:54:52;;;;;;;44.85;29.57;;;;;;;10.27;89.57;100934.63;1754932;80;27490;-79
2021/10/03 03:57:19;;;;;;;45.20;30.37;;;;;;;10.26;89.54;100929.47;1670825;80;26593;-79
2021/10/03 03:59:46;;;;;;;43.20;29.72;;;;;;;10.27;89.51;100925.77;1698253;80;25790;-79
2021/10/03 04:02:15;;;;;;;44.45;31.17;;;;;;;10.26;89.51;100933.48;1726352;80;26233;-79
2021/10/03 04:04:42;;;;;;;46.75;32.13;;;;;;;10.26;89.52;100934.33;1729870;80;25920;-79
2021/10/03 04:07:09;;;;;;;45.98;31.70;;;;;;;10.26;89.50;100938.84;1725979;80;27054;-79
2021/10/03 04:09:36;;;;;;;44.45;31.30;;;;;;;10.26;89.48;100937.00;1742601;80;25831;-79
2021/10/03 04:12:04;;;;;;;42.60;31.27;;;;;;;10.27;89.28;100936.47;1680664;81;26620;-79
2021/10/03 04:14:31;;;;;;;44.93;32.38;;;;;;;10.29;89.19;100939.80;1732333;80;25762;-79
2021/10/03 04:16:58;;;;;;;46.35;32.78;;;;;;;10.28;89.14;100926.95;1703016;80;25300;-79
2021/10/03 04:19:25;;;;;;;45.17;31.77;;;;;;;10.27;89.13;100921.25;1711449;80;27465;-79
2021/10/03 04:21:52;;;;;;;47.48;31.97;;;;;;;10.25;88.96;100920.59;1701172;80;26125;-79
2021/10/03 04:24:19;;;;;;;47.20;31.17;;;;;;;10.25;89.03;100925.95;1754496;80;25793;-79
2021/10/03 04:26:46;;;;;;;45.30;30.65;;;;;;;10.20;89.05;100924.83;1743155;81;26872;-78
2021/10/03 04:29:13;;;;;;;47.10;30.97;;;;;;;10.17;89.16;100920.65;1696287;81;25794;-79
2021/10/03 04:31:40;;;;;;;45.28;30.55;;;;;;;10.17;89.21;100920.65;1664365;83;27429;-79
2021/10/03 04:34:08;;;;;;;47.30;31.15;;;;;;;10.16;89.24;100926.19;1707635;81;25790;-79
2021/10/03 04:36:36;;;;;;;42.10;28.62;;;;;;;10.13;89.30;100923.85;1686007;82;25750;-79
2021/10/03 04:39:04;;;;;;;38.45;28.15;;;;;;;10.13;89.40;100929.20;1702187;80;25836;-79
2021/10/03 04:41:32;;;;;;;47.40;29.35;;;;;;;10.12;89.36;100928.36;1680930;82;26694;-79
2021/10/03 04:43:59;;;;;;;42.62;27.30;;;;;;;10.12;89.40;100933.72;1724949;80;28382;-79
2021/10/03 04:46:26;;;;;;;44.70;28.90;;;;;;;10.11;89.30;100937.92;1731754;80;25803;-80
2021/10/03 04:48:53;;;;;;;37.60;25.50;;;;;;;10.09;89.37;100944.77;1679733;80;25902;-79
2021/10/03 04:51:21;;;;;;;40.12;27.40;;;;;;;10.08;89.31;100939.91;1690365;82;26006;-79
2021/10/03 04:53:48;;;;;;;42.45;28.40;;;;;;;10.09;89.37;100942.89;1729406;80;25867;-79
2021/10/03 04:56:15;;;;;;;44.03;28.17;;;;;;;10.11;89.31;100945.95;1736657;82;27469;-79
2021/10/03 04:58:42;;;;;;;40.00;28.02;;;;;;;10.11;89.32;100949.47;1680485;82;25556;-78
2021/10/03 05:01:11;;;;;;;42.70;28.23;;;;;;;10.09;89.35;100936.20;1730055;82;25793;-78
2021/10/03 05:03:38;;;;;;;43.25;28.02;;;;;;;10.09;89.54;100939.41;1706117;82;26490;-78
2021/10/03 05:06:07;;;;;;;42.50;28.38;;;;;;;10.06;89.68;100938.41;1735315;81;25797;-79
2021/10/03 05:08:35;;;;;;;51.25;29.45;;;;;;;10.05;89.84;100941.58;1697677;83;27567;-78
2021/10/03 05:11:02;;;;;;;61.13;28.98;;;;;;;10.07;90.29;100942.23;1707356;83;25744;-80
2021/10/03 05:13:29;;;;;;;47.95;30.00;;;;;;;10.02;90.31;100935.75;1681827;83;26539;-79
2021/10/03 05:15:57;;;;;;;58.75;28.52;;;;;;;10.01;90.50;100937.59;1708583;83;25970;-79
2021/10/03 05:18:24;;;;;;;59.93;30.68;;;;;;;10.04;90.73;100937.75;1676064;82;25917;-79
2021/10/03 05:20:51;;;;;;;67.58;29.18;;;;;;;10.04;90.93;100929.72;1727072;82;28144;-79
2021/10/03 05:23:19;;;;;;;58.73;32.30;;;;;;;10.02;91.01;100929.91;1752530;81;25778;-79
2021/10/03 05:25:46;;;;;;;45.65;29.02;;;;;;;10.05;91.14;100930.88;1709192;81;25430;-79
2021/10/03 05:28:13;;;;;;;58.15;29.55;;;;;;;10.06;91.25;100939.74;1753897;81;26398;-79
2021/10/03 05:30:40;;;;;;;47.83;28.15;;;;;;;10.08;91.39;100932.37;1706366;82;26351;-79
2021/10/03 05:33:08;;;;;;;75.28;29.95;;;;;;;10.07;91.52;100935.55;1731538;82;27569;-79
2021/10/03 05:35:35;;;;;;;44.05;28.73;;;;;;;10.05;91.66;100930.88;1731527;82;25757;-79
2021/10/03 05:38:03;;;;;;;56.77;31.37;;;;;;;10.08;91.91;100923.00;1659854;82;25832;-79
2021/10/03 05:40:32;;;;;;;71.53;32.17;;;;;;;10.10;92.12;100927.67;1706848;82;25874;-79
2021/10/03 05:42:59;;;;;;;62.58;31.12;;;;;;;10.13;92.23;100919.84;1731072;82;25830;-79
2021/10/03 05:45:27;;;;;;;62.70;32.35;;;;;;;10.13;92.29;100919.34;1731400;82;28261;-79
2021/10/03 05:47:55;;;;;;;74.65;31.42;;;;;;;10.16;92.71;100918.97;1660264;82;25597;-79
2021/10/03 05:50:22;;;;;;;60.45;32.28;;;;;;;10.17;92.85;100930.02;1680403;83;25953;-80
2021/10/03 05:52:49;;;;;;;47.93;29.87;;;;;;;10.19;92.87;100926.66;1653268;85;25828;-79
2021/10/03 05:55:16;;;;;;;55.55;30.55;;;;;;;10.21;92.99;100924.64;1678704;85;25741;-79
2021/10/03 05:57:43;;;;;;;57.53;31.73;;;;;;;10.23;92.98;100929.80;1654655;84;28265;-79
2021/10/03 06:00:13;;;;;;;54.45;32.58;;;;;;;10.26;93.19;100923.62;1680349;83;43200;-78
2021/10/03 06:02:40;;;;;;;58.30;30.57;;;;;;;10.28;93.34;100922.09;1703596;83;25828;-78
2021/10/03 06:05:08;;;;;;;51.95;32.70;;;;;;;10.29;93.33;100919.72;1695561;84;25869;-78
2021/10/03 06:07:35;;;;;;;60.45;35.17;;;;;;;10.34;93.54;100924.05;1705549;83;25811;-79
2021/10/03 06:10:03;;;;;;;61.30;35.52;;;;;;;10.37;93.76;100923.19;1682933;82;27670;-79
2021/10/03 06:12:30;;;;;;;51.02;32.23;;;;;;;10.38;94.06;100926.20;1708212;82;26588;-79
2021/10/03 06:14:57;;;;;;;52.27;33.42;;;;;;;10.40;93.96;100924.18;1705587;82;25807;-79
2021/10/03 06:17:24;;;;;;;52.08;32.10;;;;;;;10.44;94.09;100930.84;1722684;82;26526;-79
2021/10/03 06:19:52;;;;;;;56.90;33.28;;;;;;;10.49;94.15;100929.81;1649726;83;25852;-78
2021/10/03 06:22:23;;;;;;;56.10;34.92;;;;;;;10.52;94.38;100932.12;1707390;81;27544;-78
2021/10/03 06:24:48;;;;;;;55.12;33.13;;;;;;;10.51;94.08;100933.15;1733125;81;25836;-78
2021/10/03 06:27:15;;;;;;;56.10;34.27;;;;;;;10.53;94.03;100936.48;1703540;81;25881;-78
2021/10/03 06:29:42;;;;;;;51.48;33.63;;;;;;;10.56;94.22;100935.30;1712408;81;26609;-78
2021/10/03 06:32:09;;;;;;;53.63;34.83;;;;;;;10.56;94.14;100934.77;1691297;82;25885;-78
2021/10/03 06:34:36;;;;;;;50.40;34.33;;;;;;;10.58;94.12;100937.29;1749502;81;27422;-79
2021/10/03 06:37:04;;;;;;;50.28;33.90;;;;;;;10.56;93.85;100938.78;1734986;81;25812;-78
2021/10/03 06:39:31;;;;;;;52.67;37.23;;;;;;;10.59;94.12;100938.94;1687226;81;26573;-78
2021/10/03 06:41:58;;;;;;;56.20;37.53;;;;;;;10.59;94.14;100948.31;1737019;81;26580;-78
2021/10/03 06:44:25;;;;;;;51.53;34.55;;;;;;;10.60;94.04;100949.50;1764900;78;25800;-79
2021/10/03 06:46:52;;;;;;;56.83;35.88;;;;;;;10.63;94.04;100949.13;1727363;81;28045;-78
2021/10/03 06:49:19;;;;;;;49.38;33.70;;;;;;;10.70;94.17;100958.13;1678799;81;25906;-79
2021/10/03 06:51:46;;;;;;;47.23;32.53;;;;;;;10.74;94.26;100955.91;1712314;82;25811;-80
2021/10/03 06:54:13;;;;;;;50.58;31.80;;;;;;;10.77;94.19;100959.08;1734998;82;25822;-80
2021/10/03 06:56:40;;;;;;;44.63;30.62;;;;;;;10.83;94.26;100965.55;1734644;82;25870;-80
2021/10/03 06:59:07;;;;;;;43.58;29.32;;;;;;;10.86;94.02;100966.55;1721076;81;27533;-80
2021/10/03 07:01:34;;;;;;;43.23;28.60;;;;;;;10.93;94.07;100971.50;1664098;82;25944;-79
2021/10/03 07:04:01;;;;;;;46.05;31.75;;;;;;;10.99;94.16;100964.08;1746473;81;25759;-79
2021/10/03 07:06:28;;;;;;;39.50;28.57;;;;;;;11.04;94.13;100962.20;1743996;81;26430;-79
2021/10/03 07:08:55;;;;;;;42.73;29.35;;;;;;;11.13;94.35;100965.14;1705831;82;25842;-79
2021/10/03 07:11:22;;;;;;;43.85;29.40;;;;;;;11.21;94.22;100969.08;1684000;82;28489;-79
2021/10/03 07:13:49;;;;;;;43.45;29.35;;;;;;;11.30;94.37;100966.66;1739285;82;25786;-79
2021/10/03 07:16:17;;;;;;;43.52;30.32;;;;;;;11.38;94.14;100966.06;1738137;82;26098;-79
2021/10/03 07:18:45;;;;;;;41.40;29.27;;;;;;;11.43;93.94;100969.55;1685752;83;25948;-79
2021/10/03 07:21:12;;;;;;;43.00;30.57;;;;;;;11.42;93.45;100963.34;1696043;82;26491;-79
2021/10/03 07:23:39;;;;;;;48.25;30.62;;;;;;;11.40;92.90;100968.55;1713999;82;27520;-79
2021/10/03 07:26:07;;;;;;;42.08;29.60;;;;;;;11.38;93.04;100967.91;1738614;82;25848;-79
2021/10/03 07:28:35;;;;;;;40.35;29.00;;;;;;;11.36;92.94;100964.58;1714649;82;25343;-79
2021/10/03 07:31:03;;;;;;;41.42;28.80;;;;;;;11.40;93.32;100965.38;1691192;82;25908;-79
2021/10/03 07:33:30;;;;;;;41.58;30.32;;;;;;;11.47;93.39;100964.97;1739160;82;25786;-80
2021/10/03 07:35:57;;;;;;;43.78;28.75;;;;;;;11.55;93.32;100965.38;1738406;81;28359;-79
2021/10/03 07:38:24;;;;;;;39.73;28.35;;;;;;;11.59;93.11;100962.65;1689643;82;25809;-79
2021/10/03 07:40:51;;;;;;;38.78;28.57;;;;;;;11.68;93.45;100962.08;1690471;82;25864;-80
2021/10/03 07:43:18;;;;;;;41.55;27.93;;;;;;;11.76;93.07;100962.02;1739698;82;25992;-79
2021/10/03 07:45:45;;;;;;;38.83;27.07;;;;;;;11.86;93.38;100954.00;1738588;82;25808;-79
2021/10/03 07:48:12;;;;;;;43.42;27.32;;;;;;;11.97;93.34;100960.25;1690113;82;27579;-79
2021/10/03 07:50:39;;;;;;;43.30;29.40;;;;;;;12.08;93.17;100958.41;1690760;82;25935;-79
2021/10/03 07:53:06;;;;;;;37.53;26.42;;;;;;;12.20;93.34;100956.08;1735883;82;25946;-79
2021/10/03 07:55:33;;;;;;;39.10;27.65;;;;;;;12.28;92.74;100947.90;1737407;82;25947;-80
2021/10/03 07:58:06;;;;;;;41.68;28.32;;;;;;;12.37;92.69;100946.27;1690597;82;25858;-79
2021/10/03 08:00:36;;;;;;;41.68;29.85;;;;;;;12.42;91.90;100945.70;1715477;82;27510;-80
2021/10/03 08:03:03;;;;;;;35.15;26.73;;;;;;;12.49;91.99;100949.80;1737617;82;25763;-80
2021/10/03 08:05:30;;;;;;;34.43;24.52;;;;;;;12.57;92.23;100951.86;1737324;81;25824;-79
2021/10/03 08:08:00;;;;;;;38.90;26.20;;;;;;;12.67;92.20;100955.05;1676531;82;26457;-80
2021/10/03 08:10:28;;;;;;;39.75;26.65;;;;;;;12.76;91.94;100949.88;1704701;82;26380;-80
2021/10/03 08:12:55;;;;;;;41.63;27.98;;;;;;;12.86;91.87;100948.19;1678335;84;28538;-80
2021/10/03 08:15:22;;;;;;;44.35;28.32;;;;;;;12.94;91.53;100946.20;1731840;81;25847;-80
2021/10/03 08:17:49;;;;;;;34.95;24.57;;;;;;;12.99;91.27;100943.78;1731359;81;25848;-80
2021/10/03 08:20:16;;;;;;;34.30;24.40;;;;;;;13.08;91.35;100944.00;1688941;82;26576;-80
2021/10/03 08:22:43;;;;;;;36.30;24.85;;;;;;;13.18;91.08;100936.92;1708476;82;26665;-80
2021/10/03 08:25:10;;;;;;;37.25;24.18;;;;;;;13.27;90.81;100938.44;1682172;82;27441;-80
2021/10/03 08:27:38;;;;;;;35.80;24.45;;;;;;;13.35;90.58;100935.59;1717475;82;25317;-79
2021/10/03 08:30:08;;;;;;;33.85;24.87;;;;;;;13.44;89.96;100930.89;1676333;82;25856;-80
2021/10/03 08:32:36;;;;;;;34.05;24.87;;;;;;;13.53;90.15;100933.25;1690226;82;26730;-79
2021/10/03 08:35:06;;;;;;;32.08;22.60;;;;;;;13.62;89.33;100935.27;1717263;82;25733;-80
2021/10/03 08:37:33;;;;;;;32.17;22.75;;;;;;;13.72;89.32;100937.91;1724907;81;28334;-79
2021/10/03 08:40:00;;;;;;;34.20;23.38;;;;;;;13.80;89.09;100929.66;1733536;81;25898;-79
2021/10/03 08:42:28;;;;;;;33.00;22.20;;;;;;;13.90;88.67;100930.62;1657869;82;25334;-80
2021/10/03 08:44:55;;;;;;;30.10;22.62;;;;;;;13.96;87.93;100929.02;1728973;82;26503;-80
2021/10/03 08:47:23;;;;;;;33.23;22.00;;;;;;;14.02;87.07;100931.73;1686702;82;25782;-80
2021/10/03 08:49:54;;;;;;;30.62;23.32;;;;;;;14.12;87.99;100928.14;1718345;82;27613;-80
2021/10/03 08:52:19;;;;;;;32.58;21.52;;;;;;;14.23;87.43;100924.03;1666481;82;26512;-80
2021/10/03 08:54:46;;;;;;;28.23;21.68;;;;;;;14.34;87.65;100922.97;1733024;81;26477;-79
2021/10/03 08:57:13;;;;;;;28.17;20.92;;;;;;;14.45;86.82;100922.89;1688086;83;25869;-80
2021/10/03 09:00:05;;;;;;;29.90;20.70;;;;;;;14.55;87.18;100919.27;1684365;82;25829;-80
2021/10/03 09:02:54;;;;;;;30.90;19.55;;;;;;;14.65;87.25;100919.70;1643440;84;27949;-80
2021/10/03 09:05:23;;;;;;;26.90;18.85;;;;;;;14.79;86.05;100917.86;1720991;80;25803;-80
2021/10/03 09:08:20;;;;;;;26.05;18.67;;;;;;;14.91;86.23;100914.33;1733068;82;25712;-81
2021/10/03 09:11:01;;;;;;;29.18;19.25;;;;;;;15.04;85.27;100910.80;1662608;83;25882;-80
2021/10/03 09:13:37;;;;;;;26.65;20.00;;;;;;;15.14;85.21;100909.89;1691185;82;25883;-81
2021/10/03 09:16:15;;;;;;;30.23;20.35;;;;;;;15.20;83.98;100912.58;1739044;80;27553;-81
2021/10/03 09:18:50;;;;;;;25.95;17.42;;;;;;;15.25;83.75;100907.37;1699716;83;25848;-81
2021/10/03 09:21:34;;;;;;;27.52;18.00;;;;;;;15.24;83.64;100904.38;1709641;83;25922;-80
2021/10/03 09:24:17;;;;;;;24.43;18.25;;;;;;;15.21;82.92;100906.64;1682033;82;25769;-80
2021/10/03 09:27:06;;;;;;;24.20;18.02;;;;;;;15.18;83.02;100898.44;1731037;82;25748;-80
2021/10/03 09:29:37;;;;;;;27.37;19.35;;;;;;;15.22;82.77;100897.52;1731364;80;28157;-80
2021/10/03 09:32:12;;;;;;;25.57;18.62;;;;;;;15.26;82.25;100896.06;1686279;82;25325;-80
2021/10/03 09:34:46;;;;;;;26.93;18.90;;;;;;;15.30;82.21;100894.59;1681070;83;26447;-80
2021/10/03 09:37:32;;;;;;;24.10;17.20;;;;;;;15.34;82.73;100889.08;1731211;81;26741;-80
2021/10/03 09:40:15;;;;;;;24.18;16.85;;;;;;;15.39;82.56;100887.43;1695722;82;26752;-80
2021/10/03 09:43:04;;;;;;;24.50;17.42;;;;;;;15.46;82.48;100878.52;1694330;83;27580;-81
2021/10/03 09:45:33;;;;;;;22.00;17.10;;;;;;;15.55;82.36;100877.22;1694191;82;26474;-80
2021/10/03 09:48:07;;;;;;;23.47;16.25;;;;;;;15.64;81.62;100870.03;1715678;82;25929;-80
2021/10/03 09:50:40;;;;;;;22.15;15.08;;;;;;;15.73;82.24;100866.58;1712337;82;25904;-80
2021/10/03 09:53:07;;;;;;;19.20;15.32;;;;;;;15.80;81.92;100865.48;1644088;82;25848;-80
2021/10/03 09:55:35;;;;;;;20.62;16.23;;;;;;;15.89;81.93;100863.38;1709157;82;27623;-80
2021/10/03 09:58:02;;;;;;;24.45;16.60;;;;;;;15.98;81.61;100858.88;1732084;81;25791;-80
2021/10/03 10:00:29;;;;;;;22.62;15.93;;;;;;;16.08;81.12;100865.19;1734279;81;25371;-80
2021/10/03 10:02:56;;;;;;;18.57;15.35;;;;;;;16.14;78.73;100850.80;1689146;83;25909;-81
2021/10/03 10:05:27;;;;;;;19.80;14.33;;;;;;;16.18;79.72;100860.97;1669250;84;25942;-80
2021/10/03 10:07:56;;;;;;;19.67;13.08;;;;;;;16.23;79.66;100859.48;1700689;81;27651;-80
2021/10/03 10:10:24;;;;;;;18.37;14.00;;;;;;;16.28;79.42;100859.12;1740614;81;25851;-81
2021/10/03 10:13:02;;;;;;;19.62;14.38;;;;;;;16.38;79.65;100854.61;1749352;81;26518;-80
2021/10/03 10:15:29;;;;;;;18.95;13.68;;;;;;;16.47;79.56;100858.16;1711677;81;25857;-80
2021/10/03 10:17:56;;;;;;;16.52;12.75;;;;;;;16.58;79.58;100857.50;1706501;82;25916;-80
2021/10/03 10:20:32;;;;;;;15.50;12.05;;;;;;;16.66;78.41;100859.09;1748663;80;28331;-81
2021/10/03 10:23:04;;;;;;;14.98;13.03;;;;;;;16.72;78.23;100859.03;1696529;81;25927;-81
2021/10/03 10:25:53;;;;;;;20.10;12.07;;;;;;;16.78;77.80;100852.77;1690602;81;26554;-80
2021/10/03 10:28:34;;;;;;;22.17;15.50;;;;;;;16.86;76.97;100850.30;1768855;80;26457;-80
2021/10/03 10:31:21;;;;;;;18.77;11.73;;;;;;;16.91;76.27;100848.57;1719035;80;25879;-81
2021/10/03 10:34:00;;;;;;;15.25;12.03;;;;;;;16.95;76.19;100853.03;1762905;79;27587;-81
2021/10/03 10:36:37;;;;;;;15.85;11.78;;;;;;;17.02;75.62;100844.86;1678060;82;25859;-81
2021/10/03 10:39:14;;;;;;;13.05;10.80;;;;;;;17.09;75.89;100848.30;1774596;80;25721;-81
2021/10/03 10:41:46;;;;;;;17.35;11.08;;;;;;;17.17;75.08;100852.10;1775589;79;25838;-81
2021/10/03 10:44:33;;;;;;;16.02;11.48;;;;;;;17.21;74.43;100846.54;1730707;80;25346;-81
2021/10/03 10:47:08;;;;;;;18.32;10.88;;;;;;;17.25;74.28;100846.39;1695295;81;28153;-81
2021/10/03 10:49:46;;;;;;;14.65;10.78;;;;;;;17.31;74.53;100849.55;1741465;81;25630;-80
2021/10/03 10:52:22;;;;;;;14.85;10.93;;;;;;;17.40;73.65;100848.20;1704561;83;25607;-80
2021/10/03 10:55:21;;;;;;;17.95;11.10;;;;;;;17.46;72.32;100841.37;1682115;82;25906;-80
2021/10/03 10:58:02;;;;;;;17.65;11.25;;;;;;;17.50;72.18;100843.95;1725966;80;26536;-81
2021/10/03 11:00:32;;;;;;;20.32;11.57;;;;;;;17.55;71.83;100833.28;1748285;81;27459;-80
2021/10/03 11:03:04;;;;;;;16.42;11.75;;;;;;;17.59;72.27;100830.94;1748811;79;25817;-81
2021/10/03 11:05:46;;;;;;;17.45;10.70;;;;;;;17.64;73.02;100835.96;1742403;81;25995;-80
2021/10/03 11:08:20;;;;;;;16.90;11.55;;;;;;;17.71;72.29;100829.94;1743540;81;25828;-80
2021/10/03 11:11:10;;;;;;;18.07;10.93;;;;;;;17.75;71.83;100829.50;1745677;81;25958;-80
2021/10/03 11:13:53;;;;;;;16.55;11.05;;;;;;;17.79;72.12;100831.53;1746076;81;27543;-80
2021/10/03 11:16:38;;;;;;;16.55;11.38;;;;;;;17.81;71.17;100832.12;1735738;80;25312;-80
2021/10/03 11:19:21;;;;;;;14.95;11.40;;;;;;;17.83;70.78;100824.59;1685573;81;25803;-80
2021/10/03 11:21:52;;;;;;;14.47;10.45;;;;;;;17.86;70.03;100828.70;1732876;80;25840;-80